Time;durP1;ratioP1;P1;durP2;ratioP2;P2;SDS_P1;SDS_P2;PMS_P1;PMS_P2;Temp;Humidity;BMP_temperature;BMP_pressure;BME280_temperature;BME280_humidity;BME280_pressure;Samples;Min_cycle;Max_cycle;Signal;HPM_P1;HPM_P2
2022/10/23 00:02:21;;;;;;;;;;;14.00;99.90;;;;;;5034827;28;19913;-82
2022/10/23 00:04:50;;;;;;;;;;;14.00;99.90;;;;;;5034548;28;19916;-83
2022/10/23 00:07:16;;;;;;;;;;;13.90;99.90;;;;;;5034318;28;19909;-83
2022/10/23 00:09:41;;;;;;;;;;;13.90;99.90;;;;;;5034717;28;19916;-84
2022/10/23 00:12:07;;;;;;;;;;;13.90;99.90;;;;;;5052741;28;19955;-82
2022/10/23 00:14:33;;;;;;;;;;;13.90;99.90;;;;;;5034457;28;19909;-84
2022/10/23 00:16:58;;;;;;;;;;;13.80;99.90;;;;;;5034331;28;19916;-83
2022/10/23 00:19:23;;;;;;;;;;;13.80;99.90;;;;;;5034447;28;20018;-83
2022/10/23 00:21:49;;;;;;;;;;;13.80;99.90;;;;;;5034403;28;19924;-83
2022/10/23 00:24:14;;;;;;;;;;;13.80;99.90;;;;;;5052302;28;19908;-82
2022/10/23 00:26:40;;;;;;;;;;;13.70;99.90;;;;;;5051886;28;19913;-83
2022/10/23 00:29:06;;;;;;;;;;;13.70;99.90;;;;;;5052377;28;20295;-83
2022/10/23 00:31:32;;;;;;;;;;;13.70;99.90;;;;;;5034606;28;19999;-83
2022/10/23 00:33:57;;;;;;;;;;;13.70;99.90;;;;;;5052244;28;19952;-82
2022/10/23 00:36:23;;;;;;;;;;;13.70;99.90;;;;;;5033980;28;19958;-83
2022/10/23 00:38:49;;;;;;;;;;;13.60;99.90;;;;;;5034337;28;20440;-83
2022/10/23 00:41:20;;;;;;;;;;;13.60;99.90;;;;;;5034316;28;19920;-82
2022/10/23 00:44:00;;;;;;;;;;;13.60;99.90;;;;;;5034273;28;19909;-83
2022/10/23 00:46:26;;;;;;;;;;;13.50;99.90;;;;;;5051698;28;19912;-82
2022/10/23 00:48:51;;;;;;;;;;;13.50;99.90;;;;;;5034480;28;19919;-83
2022/10/23 00:51:17;;;;;;;;;;;13.40;99.90;;;;;;5037940;28;19909;-82
2022/10/23 00:53:43;;;;;;;;;;;13.40;99.90;;;;;;5037936;28;20280;-84
2022/10/23 00:56:09;;;;;;;;;;;13.40;99.90;;;;;;5037563;28;19913;-82
2022/10/23 00:58:34;;;;;;;;;;;13.40;99.90;;;;;;5056014;28;19909;-82
2022/10/23 01:00:59;;;;;;;;;;;13.50;99.90;;;;;;5055716;28;19913;-83
2022/10/23 01:03:26;;;;;;;;;;;13.50;99.90;;;;;;5055892;28;20292;-82
2022/10/23 01:05:55;;;;;;;;;;;13.50;99.90;;;;;;5055032;28;19909;-82
2022/10/23 01:08:24;;;;;;;;;;;13.50;99.90;;;;;;5055637;28;19913;-82
2022/10/23 01:11:05;;;;;;;;;;;13.50;99.90;;;;;;5055647;28;19917;-82
2022/10/23 01:13:31;;;;;;;;;;;13.50;99.90;;;;;;5037763;28;19909;-82
2022/10/23 01:16:00;;;;;;;;;;;13.50;99.90;;;;;;5037198;28;19975;-83
2022/10/23 01:18:29;;;;;;;;;;;13.50;99.90;;;;;;5055486;28;19908;-83
2022/10/23 01:21:04;;;;;;;;;;;13.50;99.90;;;;;;5037411;28;19913;-82
2022/10/23 01:23:45;;;;;;;;;;;13.50;99.90;;;;;;5055461;28;19958;-82
2022/10/23 01:26:22;;;;;;;;;;;13.40;99.90;;;;;;5037107;28;19916;-82
2022/10/23 01:28:51;;;;;;;;;;;13.40;99.90;;;;;;5055240;28;19912;-83
2022/10/23 01:31:24;;;;;;;;;;;13.40;99.90;;;;;;5037423;28;19909;-82
2022/10/23 01:33:54;;;;;;;;;;;13.40;99.90;;;;;;5055336;28;19919;-82
2022/10/23 01:36:22;;;;;;;;;;;13.40;99.90;;;;;;5096354;22;20019;-82
2022/10/23 01:38:57;;;;;;;;;;;13.40;99.90;;;;;;5077398;28;19908;-82
2022/10/23 01:41:34;;;;;;;;;;;13.40;99.90;;;;;;5077241;28;19994;-82
2022/10/23 01:44:03;;;;;;;;;;;13.40;99.90;;;;;;5077318;28;19920;-82
2022/10/23 01:46:29;;;;;;;;;;;13.40;99.90;;;;;;5094949;28;20359;-82
2022/10/23 01:48:55;;;;;;;;;;;13.40;99.90;;;;;;5077095;28;20359;-83
2022/10/23 01:51:23;;;;;;;;;;;13.50;99.90;;;;;;5076851;28;19908;-82
2022/10/23 01:53:51;;;;;;;;;;;13.50;99.90;;;;;;5076842;28;19961;-82
2022/10/23 01:56:22;;;;;;;;;;;13.60;99.90;;;;;;5076523;28;19908;-82
2022/10/23 01:58:50;;;;;;;;;;;13.60;99.90;;;;;;5095030;28;20367;-82
2022/10/23 02:01:16;;;;;;;;;;;13.60;99.90;;;;;;5075864;28;19928;-82
2022/10/23 02:03:42;;;;;;;;;;;13.60;99.90;;;;;;5076834;28;20286;-83
2022/10/23 02:06:08;;;;;;;;;;;13.60;99.90;;;;;;5076498;28;20367;-83
2022/10/23 02:08:33;;;;;;;;;;;13.60;99.90;;;;;;5094823;28;19916;-82
2022/10/23 02:11:16;;;;;;;;;;;13.60;99.90;;;;;;5076758;28;19919;-82
2022/10/23 02:13:42;;;;;;;;;;;13.70;99.90;;;;;;5076742;28;19915;-83
2022/10/23 02:16:07;;;;;;;;;;;13.70;99.90;;;;;;5076193;28;19908;-83
2022/10/23 02:18:36;;;;;;;;;;;13.80;99.90;;;;;;5094434;28;19908;-83
2022/10/23 02:21:06;;;;;;;;;;;13.80;99.90;;;;;;5076513;28;19912;-82
2022/10/23 02:23:32;;;;;;;;;;;13.90;99.90;;;;;;5094698;28;19916;-83
2022/10/23 02:26:00;;;;;;;;;;;13.90;99.90;;;;;;5075989;28;19908;-82
2022/10/23 02:28:29;;;;;;;;;;;13.90;99.90;;;;;;5076184;28;19912;-82
2022/10/23 02:30:56;;;;;;;;;;;14.00;99.90;;;;;;5076360;28;19908;-83
2022/10/23 02:33:22;;;;;;;;;;;14.00;99.90;;;;;;5094389;28;20003;-83
2022/10/23 02:35:48;;;;;;;;;;;14.00;99.90;;;;;;5094155;28;20363;-82
2022/10/23 02:38:31;;;;;;;;;;;14.00;99.90;;;;;;5076391;28;19908;-83
2022/10/23 02:41:19;;;;;;;;;;;14.00;99.90;;;;;;5076641;28;19919;-83
2022/10/23 02:43:53;;;;;;;;;;;14.10;99.90;;;;;;5081351;28;19909;-82
2022/10/23 02:46:44;;;;;;;;;;;14.20;99.90;;;;;;5076211;28;19908;-83
2022/10/23 02:49:16;;;;;;;;;;;14.20;99.90;;;;;;5055751;28;19912;-83
2022/10/23 02:51:44;;;;;;;;;;;14.20;99.90;;;;;;5076337;28;19947;-83
2022/10/23 02:54:14;;;;;;;;;;;14.30;99.90;;;;;;5075950;28;19908;-82
2022/10/23 02:56:49;;;;;;;;;;;14.30;99.90;;;;;;5075989;28;20057;-83
2022/10/23 02:59:14;;;;;;;;;;;14.30;99.90;;;;;;5076059;28;19931;-82
2022/10/23 03:01:48;;;;;;;;;;;14.40;99.90;;;;;;5075611;28;19908;-83
2022/10/23 03:04:14;;;;;;;;;;;14.40;99.90;;;;;;5076204;28;19915;-83
2022/10/23 03:06:40;;;;;;;;;;;14.40;99.90;;;;;;5075691;28;19914;-83
2022/10/23 03:09:07;;;;;;;;;;;14.50;99.90;;;;;;5075655;28;20011;-82
2022/10/23 03:11:32;;;;;;;;;;;14.50;99.90;;;;;;5094169;28;20371;-83
2022/10/23 03:13:58;;;;;;;;;;;14.60;99.90;;;;;;5075760;28;20003;-82
2022/10/23 03:16:24;;;;;;;;;;;14.60;99.90;;;;;;5093722;28;19999;-82
2022/10/23 03:18:49;;;;;;;;;;;14.60;99.90;;;;;;5093849;28;20393;-83
2022/10/23 03:21:15;;;;;;;;;;;14.60;99.90;;;;;;5093917;28;19957;-83
2022/10/23 03:23:40;;;;;;;;;;;14.60;99.90;;;;;;5075770;28;19908;-82
2022/10/23 03:26:06;;;;;;;;;;;14.60;99.90;;;;;;5093408;28;19995;-83
2022/10/23 03:28:31;;;;;;;;;;;14.60;99.90;;;;;;5075521;28;19934;-83
2022/10/23 03:30:57;;;;;;;;;;;14.60;99.90;;;;;;5075612;28;20359;-82
2022/10/23 03:33:22;;;;;;;;;;;14.70;99.90;;;;;;5075661;28;19979;-83
2022/10/23 03:35:48;;;;;;;;;;;14.70;99.90;;;;;;5074827;28;19912;-83
2022/10/23 03:38:13;;;;;;;;;;;14.70;99.90;;;;;;5075608;28;19909;-83
2022/10/23 03:40:39;;;;;;;;;;;14.70;99.90;;;;;;5075223;28;19961;-82
2022/10/23 03:43:04;;;;;;;;;;;14.70;99.90;;;;;;5093356;28;19915;-83
2022/10/23 03:45:31;;;;;;;;;;;14.70;99.90;;;;;;5074475;28;20382;-83
2022/10/23 03:47:57;;;;;;;;;;;14.70;99.90;;;;;;5093306;28;20363;-82
2022/10/23 03:50:22;;;;;;;;;;;14.70;99.90;;;;;;5074859;28;19998;-82
2022/10/23 03:52:47;;;;;;;;;;;14.70;99.90;;;;;;5074898;28;19939;-83
2022/10/23 03:55:13;;;;;;;;;;;14.70;99.90;;;;;;5074739;28;19958;-83
2022/10/23 03:57:38;;;;;;;;;;;14.70;99.90;;;;;;5092750;28;19951;-83
2022/10/23 04:00:04;;;;;;;;;;;14.70;99.90;;;;;;5074809;28;19917;-83
2022/10/23 04:02:30;;;;;;;;;;;14.60;99.90;;;;;;5075118;28;19912;-82
2022/10/23 04:04:55;;;;;;;;;;;14.60;99.90;;;;;;5074528;28;19999;-83
2022/10/23 04:07:22;;;;;;;;;;;14.60;99.90;;;;;;5057416;28;20131;-83
2022/10/23 04:09:47;;;;;;;;;;;14.60;99.90;;;;;;5092826;28;19908;-83
2022/10/23 04:12:13;;;;;;;;;;;14.60;99.90;;;;;;5074813;28;19908;-82
2022/10/23 04:14:38;;;;;;;;;;;14.60;99.90;;;;;;5074709;28;19912;-82
2022/10/23 04:17:04;;;;;;;;;;;14.50;99.90;;;;;;5074333;28;19908;-82
2022/10/23 04:19:29;;;;;;;;;;;14.50;99.90;;;;;;5092902;28;19908;-82
2022/10/23 04:21:56;;;;;;;;;;;14.50;99.90;;;;;;5074580;28;19999;-83
2022/10/23 04:24:22;;;;;;;;;;;14.50;99.90;;;;;;5074293;28;19908;-83
2022/10/23 04:26:47;;;;;;;;;;;14.50;99.90;;;;;;5074568;28;20440;-83
2022/10/23 04:29:13;;;;;;;;;;;14.50;99.90;;;;;;5074582;28;19912;-83
2022/10/23 04:31:38;;;;;;;;;;;14.50;99.90;;;;;;5074552;28;20374;-83
2022/10/23 04:34:03;;;;;;;;;;;14.50;99.90;;;;;;5074761;28;19908;-82
2022/10/23 04:36:29;;;;;;;;;;;14.50;99.90;;;;;;5073937;28;19920;-82
2022/10/23 04:38:55;;;;;;;;;;;14.50;99.90;;;;;;5092753;28;19960;-83
2022/10/23 04:41:20;;;;;;;;;;;14.50;99.90;;;;;;5092358;28;20003;-82
2022/10/23 04:43:45;;;;;;;;;;;14.40;99.90;;;;;;5092408;28;19908;-83
2022/10/23 04:46:11;;;;;;;;;;;14.40;99.90;;;;;;5073842;28;19908;-83
2022/10/23 04:48:36;;;;;;;;;;;14.40;99.90;;;;;;5092275;28;19912;-82
2022/10/23 04:51:03;;;;;;;;;;;14.40;99.90;;;;;;5074229;28;20286;-82
2022/10/23 04:53:29;;;;;;;;;;;14.40;99.90;;;;;;5074339;28;20333;-81
2022/10/23 04:55:55;;;;;;;;;;;14.40;99.90;;;;;;5073796;28;19913;-82
2022/10/23 04:58:21;;;;;;;;;;;14.40;99.90;;;;;;5074177;28;19908;-83
2022/10/23 05:00:47;;;;;;;;;;;14.40;99.90;;;;;;5091985;28;19908;-82
2022/10/23 05:03:13;;;;;;;;;;;14.40;99.90;;;;;;5074069;28;20303;-82
2022/10/23 05:05:39;;;;;;;;;;;14.30;99.90;;;;;;5073736;28;19912;-82
2022/10/23 05:08:05;;;;;;;;;;;14.30;99.90;;;;;;5074000;28;20271;-82
2022/10/23 05:10:30;;;;;;;;;;;14.40;99.90;;;;;;5074067;28;19930;-82
2022/10/23 05:12:56;;;;;;;;;;;14.40;99.90;;;;;;5073919;28;19908;-82
2022/10/23 05:15:21;;;;;;;;;;;14.40;99.90;;;;;;5073701;28;19909;-82
2022/10/23 05:17:49;;;;;;;;;;;14.40;99.90;;;;;;5092109;28;19974;-81
2022/10/23 05:20:17;;;;;;;;;;;14.40;99.90;;;;;;5074010;28;19953;-82
2022/10/23 05:22:43;;;;;;;;;;;14.30;99.90;;;;;;5073922;28;20389;-82
2022/10/23 05:25:09;;;;;;;;;;;14.30;99.90;;;;;;5073824;28;19913;-82
2022/10/23 05:27:34;;;;;;;;;;;14.30;99.90;;;;;;5091606;28;19935;-82
2022/10/23 05:30:01;;;;;;;;;;;14.30;99.90;;;;;;5073988;28;19938;-83
2022/10/23 05:32:28;;;;;;;;;;;14.30;99.90;;;;;;5073760;28;19908;-82
2022/10/23 05:34:53;;;;;;;;;;;14.30;99.90;;;;;;5073797;28;19998;-83
2022/10/23 05:37:19;;;;;;;;;;;14.30;99.90;;;;;;5094103;28;20425;-82
2022/10/23 05:39:44;;;;;;;;;;;14.30;99.90;;;;;;5077304;28;19999;-83
2022/10/23 05:42:10;;;;;;;;;;;14.30;99.90;;;;;;5095301;28;20003;-83
2022/10/23 05:44:35;;;;;;;;;;;14.30;99.90;;;;;;5077213;28;19915;-83
2022/10/23 05:47:01;;;;;;;;;;;14.30;99.90;;;;;;5094925;28;20442;-83
2022/10/23 05:49:26;;;;;;;;;;;14.30;99.90;;;;;;5076981;28;20005;-82
2022/10/23 05:51:52;;;;;;;;;;;14.20;99.90;;;;;;5095149;28;19920;-82
2022/10/23 05:54:17;;;;;;;;;;;14.20;99.90;;;;;;5077138;28;19915;-83
2022/10/23 05:56:43;;;;;;;;;;;14.20;99.90;;;;;;5076564;28;19908;-82
2022/10/23 05:59:09;;;;;;;;;;;14.20;99.90;;;;;;5095085;28;19912;-83
2022/10/23 06:01:34;;;;;;;;;;;14.30;99.90;;;;;;5076875;28;19908;-82
2022/10/23 06:04:00;;;;;;;;;;;14.30;99.90;;;;;;5094697;28;19968;-84
2022/10/23 06:06:26;;;;;;;;;;;14.30;99.90;;;;;;5076660;28;19997;-83
2022/10/23 06:08:51;;;;;;;;;;;14.30;99.90;;;;;;5076618;28;19916;-82
2022/10/23 06:11:17;;;;;;;;;;;14.30;99.90;;;;;;5076675;28;19908;-83
2022/10/23 06:13:43;;;;;;;;;;;14.40;99.90;;;;;;5076546;28;20382;-83
2022/10/23 06:16:12;;;;;;;;;;;14.30;99.90;;;;;;5076208;28;19916;-82
2022/10/23 06:18:38;;;;;;;;;;;14.40;99.90;;;;;;5094688;28;20290;-83
2022/10/23 06:21:03;;;;;;;;;;;14.40;99.90;;;;;;5094749;28;19912;-83
2022/10/23 06:23:30;;;;;;;;;;;14.40;99.90;;;;;;5076184;28;19908;-83
2022/10/23 06:25:56;;;;;;;;;;;14.40;99.90;;;;;;5076018;28;20375;-83
2022/10/23 06:28:21;;;;;;;;;;;14.50;99.90;;;;;;5076271;28;19919;-82
2022/10/23 06:30:47;;;;;;;;;;;14.50;99.90;;;;;;5076330;28;19908;-83
2022/10/23 06:33:12;;;;;;;;;;;14.60;99.90;;;;;;5094412;28;20287;-83
2022/10/23 06:35:38;;;;;;;;;;;14.60;99.90;;;;;;5093868;28;19912;-83
2022/10/23 06:38:03;;;;;;;;;;;14.60;99.90;;;;;;5076084;28;19912;-83
2022/10/23 06:40:29;;;;;;;;;;;14.70;99.90;;;;;;5075973;28;19966;-84
2022/10/23 06:42:55;;;;;;;;;;;14.70;99.90;;;;;;5076030;28;19908;-84
2022/10/23 06:45:20;;;;;;;;;;;14.70;99.90;;;;;;5093997;28;19908;-84
2022/10/23 06:47:48;;;;;;;;;;;14.80;99.90;;;;;;5075535;28;19962;-84
2022/10/23 06:50:13;;;;;;;;;;;14.80;99.90;;;;;;5093942;28;20004;-83
2022/10/23 06:52:39;;;;;;;;;;;14.80;99.90;;;;;;5075503;28;20010;-83
2022/10/23 06:55:04;;;;;;;;;;;14.90;99.90;;;;;;5075552;28;19912;-83
2022/10/23 06:57:30;;;;;;;;;;;15.00;99.90;;;;;;5075255;28;20339;-84
2022/10/23 06:59:55;;;;;;;;;;;15.00;99.90;;;;;;5093821;28;19908;-83
2022/10/23 07:02:21;;;;;;;;;;;15.10;99.90;;;;;;5076679;28;20347;-83
2022/10/23 07:04:46;;;;;;;;;;;15.10;99.90;;;;;;5075815;28;19914;-83
2022/10/23 07:07:12;;;;;;;;;;;15.20;99.90;;;;;;5075103;28;20351;-83
2022/10/23 07:09:37;;;;;;;;;;;15.20;99.90;;;;;;5093898;28;20321;-83
2022/10/23 07:12:03;;;;;;;;;;;15.20;99.90;;;;;;5075732;28;20011;-83
2022/10/23 07:14:31;;;;;;;;;;;15.20;99.90;;;;;;5075415;28;20002;-83
2022/10/23 07:16:56;;;;;;;;;;;15.30;99.90;;;;;;5075361;28;19946;-83
2022/10/23 07:19:22;;;;;;;;;;;15.30;99.90;;;;;;5093585;28;20391;-83
2022/10/23 07:21:47;;;;;;;;;;;15.30;99.90;;;;;;5075476;28;19908;-83
2022/10/23 07:24:13;;;;;;;;;;;15.40;99.90;;;;;;5075290;28;19908;-83
2022/10/23 07:26:38;;;;;;;;;;;15.40;99.90;;;;;;5093301;28;19912;-82
2022/10/23 07:29:04;;;;;;;;;;;15.50;99.90;;;;;;5075177;28;19916;-83
2022/10/23 07:31:29;;;;;;;;;;;15.50;99.90;;;;;;5093520;28;19908;-83
2022/10/23 07:33:54;;;;;;;;;;;15.60;99.90;;;;;;5075152;28;20278;-83
2022/10/23 07:36:20;;;;;;;;;;;15.60;99.90;;;;;;5074718;28;19965;-83
2022/10/23 07:38:46;;;;;;;;;;;15.70;99.90;;;;;;5096032;22;19928;-82
2022/10/23 07:41:11;;;;;;;;;;;15.70;99.90;;;;;;5092921;28;19912;-83
2022/10/23 07:43:37;;;;;;;;;;;15.80;99.90;;;;;;5075108;28;19981;-83
2022/10/23 07:46:03;;;;;;;;;;;15.80;99.90;;;;;;5092829;28;19960;-82
2022/10/23 07:48:29;;;;;;;;;;;15.80;99.90;;;;;;5090659;28;19920;-83
2022/10/23 07:51:06;;;;;;;;;;;15.90;99.90;;;;;;5092742;28;19933;-83
2022/10/23 07:53:32;;;;;;;;;;;15.90;99.90;;;;;;5093019;28;20341;-83
2022/10/23 07:55:59;;;;;;;;;;;15.90;99.90;;;;;;5092590;28;19908;-82
2022/10/23 07:58:25;;;;;;;;;;;15.90;99.90;;;;;;5091483;28;19912;-83
2022/10/23 08:01:01;;;;;;;;;;;16.00;99.90;;;;;;5074419;28;19934;-83
2022/10/23 08:03:31;;;;;;;;;;;16.10;99.90;;;;;;5091478;28;19987;-82
2022/10/23 08:05:57;;;;;;;;;;;16.20;99.90;;;;;;5092350;28;19908;-82
2022/10/23 08:08:23;;;;;;;;;;;16.40;99.90;;;;;;5094565;28;19979;-83
2022/10/23 08:10:49;;;;;;;;;;;16.40;99.90;;;;;;5099040;28;19909;-84
2022/10/23 08:13:14;;;;;;;;;;;16.50;99.90;;;;;;5100241;28;19966;-83
2022/10/23 08:15:41;;;;;;;;;;;16.60;99.90;;;;;;5093149;28;19948;-84
2022/10/23 08:18:07;;;;;;;;;;;16.70;99.90;;;;;;5090959;28;19994;-83
2022/10/23 08:20:36;;;;;;;;;;;16.90;99.90;;;;;;5091515;28;19944;-83
2022/10/23 08:23:02;;;;;;;;;;;17.00;99.90;;;;;;5074274;28;19912;-83
2022/10/23 08:25:27;;;;;;;;;;;17.20;99.90;;;;;;5073790;28;20279;-83
2022/10/23 08:27:53;;;;;;;;;;;17.20;99.90;;;;;;5073905;28;19912;-83
2022/10/23 08:30:18;;;;;;;;;;;17.30;99.90;;;;;;5092557;28;19916;-83
2022/10/23 08:32:44;;;;;;;;;;;17.40;99.90;;;;;;5092332;28;20009;-84
2022/10/23 08:35:09;;;;;;;;;;;17.50;99.90;;;;;;5089885;28;19931;-83
2022/10/23 08:37:34;;;;;;;;;;;17.70;99.90;;;;;;5091869;28;19920;-83
2022/10/23 08:40:00;;;;;;;;;;;17.80;99.90;;;;;;5074194;28;20333;-84
2022/10/23 08:42:25;;;;;;;;;;;17.80;99.90;;;;;;5074256;28;19916;-83
2022/10/23 08:44:56;;;;;;;;;;;17.70;99.90;;;;;;5073930;28;19919;-83
2022/10/23 08:47:32;;;;;;;;;;;17.80;99.90;;;;;;5073851;28;19956;-83
2022/10/23 08:50:00;;;;;;;;;;;17.80;99.90;;;;;;5091076;28;19909;-83
2022/10/23 08:52:33;;;;;;;;;;;17.80;99.90;;;;;;5092186;28;19999;-83
2022/10/23 08:55:03;;;;;;;;;;;17.80;99.90;;;;;;5092193;28;19999;-83
2022/10/23 08:57:34;;;;;;;;;;;17.90;99.90;;;;;;5090435;28;19908;-83
2022/10/23 09:00:02;;;;;;;;;;;18.00;99.90;;;;;;5092151;28;19974;-83
2022/10/23 09:02:31;;;;;;;;;;;18.00;99.90;;;;;;5090803;28;19948;-83
2022/10/23 09:04:57;;;;;;;;;;;18.00;99.90;;;;;;5073730;28;20267;-83
2022/10/23 09:07:31;;;;;;;;;;;18.10;99.90;;;;;;5091675;28;20011;-83
2022/10/23 09:10:25;;;;;;;;;;;18.30;99.90;;;;;;5091494;28;20383;-84
2022/10/23 09:12:51;;;;;;;;;;;18.40;99.90;;;;;;5077730;28;19912;-83
2022/10/23 09:15:26;;;;;;;;;;;18.60;99.90;;;;;;5077535;28;20341;-83
2022/10/23 09:17:59;;;;;;;;;;;18.80;99.90;;;;;;5077737;28;19912;-83
2022/10/23 09:20:31;;;;;;;;;;;18.80;99.90;;;;;;5095714;28;19915;-83
2022/10/23 09:22:58;;;;;;;;;;;19.00;99.90;;;;;;5094331;28;19908;-83
2022/10/23 09:25:25;;;;;;;;;;;19.10;99.90;;;;;;5077387;28;20287;-83
2022/10/23 09:27:52;;;;;;;;;;;19.30;99.90;;;;;;5095292;28;19912;-83
2022/10/23 09:30:30;;;;;;;;;;;19.30;99.90;;;;;;5095608;28;19908;-83
2022/10/23 09:32:56;;;;;;;;;;;19.30;99.90;;;;;;5094127;28;19919;-83
2022/10/23 09:35:23;;;;;;;;;;;19.30;99.90;;;;;;5095087;28;19909;-83
2022/10/23 09:37:52;;;;;;;;;;;19.50;99.90;;;;;;5093777;28;19916;-83
2022/10/23 09:40:24;;;;;;;;;;;19.60;99.90;;;;;;5077194;28;19915;-84
2022/10/23 09:42:53;;;;;;;;;;;19.70;99.90;;;;;;5095209;28;19908;-84
2022/10/23 09:45:27;;;;;;;;;;;19.90;99.90;;;;;;5095100;28;19908;-83
2022/10/23 09:48:12;;;;;;;;;;;20.10;99.90;;;;;;5095026;28;19912;-83
2022/10/23 09:50:41;;;;;;;;;;;20.10;99.90;;;;;;5076700;28;19908;-83
2022/10/23 09:53:14;;;;;;;;;;;20.10;99.90;;;;;;5094933;28;19908;-83
2022/10/23 09:55:39;;;;;;;;;;;19.90;99.90;;;;;;5094832;28;19915;-83
2022/10/23 09:58:04;;;;;;;;;;;19.80;99.90;;;;;;5094942;28;19916;-83
2022/10/23 10:00:30;;;;;;;;;;;19.70;99.90;;;;;;5076809;28;19991;-83
2022/10/23 10:02:55;;;;;;;;;;;19.60;99.90;;;;;;5094869;28;19915;-83
2022/10/23 10:05:31;;;;;;;;;;;19.50;99.90;;;;;;5092690;28;19959;-82
2022/10/23 10:08:00;;;;;;;;;;;19.50;99.90;;;;;;5094648;28;19912;-83
2022/10/23 10:10:31;;;;;;;;;;;19.50;99.90;;;;;;5085464;28;19938;-83
2022/10/23 10:13:00;;;;;;;;;;;19.60;99.90;;;;;;5073359;28;19908;-83
2022/10/23 10:15:27;;;;;;;;;;;19.60;99.90;;;;;;5076051;28;19920;-84
2022/10/23 10:18:04;;;;;;;;;;;19.70;99.90;;;;;;5094355;28;19995;-83
2022/10/23 10:20:36;;;;;;;;;;;19.80;99.90;;;;;;5076002;28;19914;-84
2022/10/23 10:23:05;;;;;;;;;;;19.90;99.90;;;;;;5083047;28;19935;-83
2022/10/23 10:25:35;;;;;;;;;;;20.10;99.90;;;;;;5073675;28;20000;-83
2022/10/23 10:28:19;;;;;;;;;;;20.10;99.90;;;;;;5073981;28;20295;-84
2022/10/23 10:30:48;;;;;;;;;;;19.90;99.90;;;;;;5074208;28;20522;-84
2022/10/23 10:33:16;;;;;;;;;;;20.00;99.90;;;;;;5074044;28;19908;-83
2022/10/23 10:35:54;;;;;;;;;;;19.90;99.90;;;;;;5073332;28;19908;-83
2022/10/23 10:38:25;;;;;;;;;;;20.00;99.90;;;;;;5073634;28;19916;-83
2022/10/23 10:41:04;;;;;;;;;;;20.00;99.90;;;;;;5076108;28;19919;-83
2022/10/23 10:43:29;;;;;;;;;;;19.90;99.90;;;;;;5075918;28;20391;-82
2022/10/23 10:46:13;;;;;;;;;;;19.80;99.90;;;;;;5093618;28;19920;-83
2022/10/23 10:48:48;;;;;;;;;;;19.80;99.90;;;;;;5093602;28;19912;-82
2022/10/23 10:51:19;;;;;;;;;;;19.80;99.90;;;;;;5093778;28;19915;-83
2022/10/23 10:53:51;;;;;;;;;;;19.80;99.90;;;;;;5093655;28;19947;-83
2022/10/23 10:56:17;;;;;;;;;;;19.70;99.90;;;;;;5074378;28;19947;-82
2022/10/23 10:58:49;;;;;;;;;;;19.60;99.90;;;;;;5073291;28;19916;-83
2022/10/23 11:01:25;;;;;;;;;;;19.60;99.90;;;;;;5073324;28;19912;-82
2022/10/23 11:04:09;;;;;;;;;;;19.60;99.90;;;;;;5055385;28;19909;-82
2022/10/23 11:06:36;;;;;;;;;;;19.80;99.90;;;;;;5073252;28;19909;-82
2022/10/23 11:09:04;;;;;;;;;;;19.90;99.90;;;;;;5073393;28;19912;-83
2022/10/23 11:11:48;;;;;;;;;;;19.80;99.90;;;;;;5088229;28;19939;-82
2022/10/23 11:14:15;;;;;;;;;;;19.70;99.90;;;;;;5076339;28;19908;-83
2022/10/23 11:16:44;;;;;;;;;;;19.50;99.90;;;;;;5076217;28;19915;-83
2022/10/23 11:19:12;;;;;;;;;;;19.40;99.90;;;;;;5076678;28;19909;-84
2022/10/23 11:21:38;;;;;;;;;;;19.40;99.90;;;;;;5057918;28;19908;-84
2022/10/23 11:24:06;;;;;;;;;;;19.30;99.90;;;;;;5076122;28;20017;-83
2022/10/23 11:26:34;;;;;;;;;;;19.10;99.90;;;;;;5075138;28;19908;-84
2022/10/23 11:29:03;;;;;;;;;;;18.70;99.90;;;;;;5058772;28;19916;-84
2022/10/23 11:31:28;;;;;;;;;;;18.50;99.90;;;;;;5059492;28;19932;-83
2022/10/23 11:34:02;;;;;;;;;;;18.30;99.90;;;;;;5076085;28;19916;-83
2022/10/23 11:36:37;;;;;;;;;;;18.30;99.90;;;;;;5074500;28;20006;-82
2022/10/23 11:39:15;;;;;;;;;;;18.30;99.90;;;;;;5070850;28;19917;-82
2022/10/23 11:41:47;;;;;;;;;;;18.40;99.90;;;;;;5082923;28;20283;-82
2022/10/23 11:44:42;;;;;;;;;;;18.60;99.90;;;;;;5092913;28;20013;-82
2022/10/23 11:47:26;;;;;;;;;;;19.20;99.90;;;;;;5074499;28;20347;-82
2022/10/23 11:50:07;;;;;;;;;;;20.30;99.90;;;;;;5092759;28;20006;-82
2022/10/23 11:52:34;;;;;;;;;;;21.40;99.90;;;;;;5079015;28;19919;-82
2022/10/23 11:55:00;;;;;;;;;;;22.00;99.90;;;;;;5071790;28;19958;-83
2022/10/23 11:57:26;;;;;;;;;;;22.20;99.90;;;;;;5071976;28;19999;-83
2022/10/23 11:59:53;;;;;;;;;;;22.40;99.90;;;;;;5072783;28;19956;-82
2022/10/23 12:02:30;;;;;;;;;;;22.70;99.90;;;;;;5072111;28;20367;-82
2022/10/23 12:04:59;;;;;;;;;;;22.70;99.90;;;;;;5072225;28;19908;-82
2022/10/23 12:07:29;;;;;;;;;;;22.90;99.90;;;;;;5072020;28;20295;-82
2022/10/23 12:10:00;;;;;;;;;;;23.00;99.90;;;;;;5054624;28;20419;-82
2022/10/23 12:12:27;;;;;;;;;;;23.00;99.90;;;;;;5072521;28;19912;-83
2022/10/23 12:14:53;;;;;;;;;;;22.80;99.90;;;;;;5073791;28;19970;-81
2022/10/23 12:17:21;;;;;;;;;;;22.70;99.90;;;;;;5072101;28;19913;-81
2022/10/23 12:19:53;;;;;;;;;;;22.40;99.90;;;;;;5080937;28;19965;-80
2022/10/23 12:22:20;;;;;;;;;;;22.20;99.90;;;;;;5071970;28;19912;-81
2022/10/23 12:24:49;;;;;;;;;;;22.10;99.90;;;;;;5053909;28;19952;-82
2022/10/23 12:27:14;;;;;;;;;;;22.10;99.90;;;;;;5071467;28;19915;-81
2022/10/23 12:29:59;;;;;;;;;;;22.20;99.90;;;;;;5087499;28;20007;-82
2022/10/23 12:32:25;;;;;;;;;;;22.20;99.90;;;;;;5091573;28;19912;-81
2022/10/23 12:35:03;;;;;;;;;;;22.20;99.90;;;;;;5092032;28;20341;-82
2022/10/23 12:37:32;;;;;;;;;;;22.10;99.90;;;;;;5091514;28;19967;-81
2022/10/23 12:39:58;;;;;;;;;;;22.00;99.90;;;;;;5074018;28;19912;-81
2022/10/23 12:42:25;;;;;;;;;;;21.90;99.90;;;;;;5091920;28;20432;-81
2022/10/23 12:45:12;;;;;;;;;;;21.70;99.90;;;;;;5092485;28;19908;-81
2022/10/23 12:47:38;;;;;;;;;;;21.60;99.90;;;;;;5095195;28;19953;-82
2022/10/23 12:50:14;;;;;;;;;;;21.50;99.90;;;;;;5095732;28;20432;-81
2022/10/23 12:52:49;;;;;;;;;;;21.40;99.90;;;;;;5096153;28;19912;-82
2022/10/23 12:55:14;;;;;;;;;;;21.30;99.90;;;;;;5095813;28;19908;-81
2022/10/23 12:57:40;;;;;;;;;;;21.10;99.90;;;;;;5095551;28;20249;-81
2022/10/23 13:00:13;;;;;;;;;;;20.90;99.90;;;;;;5077887;28;20283;-81
2022/10/23 13:02:39;;;;;;;;;;;20.90;99.90;;;;;;5087586;28;19908;-81
2022/10/23 13:05:06;;;;;;;;;;;20.80;99.90;;;;;;5074751;28;19924;-81
2022/10/23 13:07:37;;;;;;;;;;;20.80;99.90;;;;;;5076343;28;19912;-81
2022/10/23 13:10:03;;;;;;;;;;;20.90;99.90;;;;;;5065705;28;19912;-81
2022/10/23 13:12:31;;;;;;;;;;;20.90;99.90;;;;;;5086956;28;19943;-82
2022/10/23 13:15:02;;;;;;;;;;;20.70;99.90;;;;;;5095330;28;20311;-81
2022/10/23 13:17:36;;;;;;;;;;;20.80;99.90;;;;;;5092246;28;19943;-82
2022/10/23 13:20:28;;;;;;;;;;;20.70;99.90;;;;;;5095083;28;20020;-81
2022/10/23 13:23:10;;;;;;;;;;;20.70;99.90;;;;;;5091018;28;19912;-81
2022/10/23 13:25:37;;;;;;;;;;;20.70;99.90;;;;;;5094914;28;19915;-81
2022/10/23 13:28:11;;;;;;;;;;;20.70;99.90;;;;;;5095529;28;19918;-81
2022/10/23 13:30:41;;;;;;;;;;;20.70;99.90;;;;;;5096255;28;20287;-81
2022/10/23 13:33:19;;;;;;;;;;;20.80;99.90;;;;;;5096101;28;19999;-82
2022/10/23 13:35:53;;;;;;;;;;;20.80;99.90;;;;;;5094625;28;19908;-81
2022/10/23 13:38:26;;;;;;;;;;;20.80;99.90;;;;;;5072262;28;19924;-81
2022/10/23 13:40:54;;;;;;;;;;;20.80;99.90;;;;;;5123120;22;19928;-83
2022/10/23 13:43:22;;;;;;;;;;;20.80;99.90;;;;;;5091971;28;19915;-84
2022/10/23 13:45:47;;;;;;;;;;;20.80;99.90;;;;;;5095132;28;20355;-83
2022/10/23 13:48:14;;;;;;;;;;;20.70;99.90;;;;;;5095345;28;19919;-83
2022/10/23 13:50:39;;;;;;;;;;;20.70;99.90;;;;;;5095792;28;19995;-83
2022/10/23 13:53:04;;;;;;;;;;;20.60;99.90;;;;;;5076351;28;19989;-82
2022/10/23 13:55:30;;;;;;;;;;;20.70;99.90;;;;;;5076317;28;19909;-82
2022/10/23 13:57:55;;;;;;;;;;;20.60;99.90;;;;;;5075718;28;19915;-83
2022/10/23 14:00:21;;;;;;;;;;;20.60;99.90;;;;;;5094869;28;19986;-81
2022/10/23 14:02:46;;;;;;;;;;;20.50;99.90;;;;;;5077438;28;19987;-83
2022/10/23 14:05:12;;;;;;;;;;;20.40;99.90;;;;;;5076946;28;19908;-83
2022/10/23 14:07:37;;;;;;;;;;;20.40;99.90;;;;;;5094931;28;20358;-84
2022/10/23 14:10:03;;;;;;;;;;;20.30;99.90;;;;;;5076756;28;20367;-84
2022/10/23 14:12:29;;;;;;;;;;;20.30;99.90;;;;;;5094969;28;19957;-84
2022/10/23 14:14:54;;;;;;;;;;;20.30;99.90;;;;;;5095025;28;20329;-84
2022/10/23 14:17:20;;;;;;;;;;;20.20;99.90;;;;;;5094729;28;19908;-83
2022/10/23 14:19:45;;;;;;;;;;;20.20;99.90;;;;;;5077022;28;19908;-83
2022/10/23 14:22:11;;;;;;;;;;;20.20;99.90;;;;;;5076743;28;19912;-83
2022/10/23 14:24:36;;;;;;;;;;;20.20;99.90;;;;;;5076791;28;19909;-84